Time;durP1;ratioP1;P1;durP2;ratioP2;P2;SDS_P1;SDS_P2;PMS_P1;PMS_P2;Temp;Humidity;BMP_temperature;BMP_pressure;BME280_temperature;BME280_humidity;BME280_pressure;Samples;Min_cycle;Max_cycle;Signal;HPM_P1;HPM_P2
2023/04/29 00:02:13;;;;;;;3.95;1.90;;;30.60;79.30;;;;;;4987230;28;20207;-92
2023/04/29 00:04:44;;;;;;;5.15;2.05;;;30.60;80.00;;;;;;4981048;28;20274;-92
2023/04/29 00:07:16;;;;;;;8.38;1.90;;;30.70;79.50;;;;;;4979304;28;20658;-92
2023/04/29 00:09:48;;;;;;;6.45;1.80;;;30.80;75.50;;;;;;4977268;28;20207;-92
2023/04/29 00:12:20;;;;;;;7.68;2.13;;;30.80;77.80;;;;;;4976800;28;20211;-93
2023/04/29 00:14:51;;;;;;;9.00;2.30;;;30.70;74.60;;;;;;4976217;28;20257;-92
2023/04/29 00:17:22;;;;;;;5.50;2.40;;;30.50;75.40;;;;;;4976499;28;20211;-92
2023/04/29 00:19:53;;;;;;;4.78;1.73;;;30.40;76.00;;;;;;4975888;28;20214;-92
2023/04/29 00:22:25;;;;;;;7.35;2.58;;;30.40;76.90;;;;;;4977385;28;20211;-92
2023/04/29 00:24:57;;;;;;;5.07;1.80;;;30.40;76.30;;;;;;4976184;28;20261;-93
2023/04/29 00:27:29;;;;;;;7.25;2.10;;;30.30;77.30;;;;;;4975905;28;20266;-96
2023/04/29 00:30:00;;;;;;;11.10;2.33;;;30.20;79.40;;;;;;4976738;28;20253;-91
2023/04/29 00:32:31;;;;;;;7.15;2.20;;;30.10;76.10;;;;;;4980314;28;20211;-91
2023/04/29 00:35:02;;;;;;;7.47;2.47;;;30.10;76.00;;;;;;4976387;28;20207;-93
2023/04/29 00:37:33;;;;;;;4.25;2.10;;;29.90;75.60;;;;;;4974960;28;20690;-92
2023/04/29 00:40:07;;;;;;;5.82;1.85;;;29.80;78.10;;;;;;4975902;28;20217;-92
2023/04/29 00:42:38;;;;;;;8.07;2.28;;;29.70;78.70;;;;;;4975292;28;20665;-91
2023/04/29 00:45:11;;;;;;;9.05;2.80;;;29.80;78.70;;;;;;4975528;28;20665;-92
2023/04/29 00:47:42;;;;;;;10.70;1.98;;;29.60;80.30;;;;;;4974586;28;20210;-91
2023/04/29 00:50:14;;;;;;;8.20;2.05;;;29.70;77.90;;;;;;4975443;28;20221;-91
2023/04/29 00:52:45;;;;;;;3.53;1.67;;;29.60;77.80;;;;;;4976072;28;20215;-92
2023/04/29 00:55:18;;;;;;;6.43;2.22;;;29.70;77.70;;;;;;4975448;28;20270;-91
2023/04/29 00:57:51;;;;;;;7.45;2.30;;;30.00;78.50;;;;;;4977311;28;20211;-93
2023/04/29 01:00:23;;;;;;;10.57;2.35;;;30.10;77.30;;;;;;4961711;28;20632;-94
2023/04/29 01:02:55;;;;;;;9.30;2.47;;;30.40;78.50;;;;;;4957760;28;20666;-93
2023/04/29 01:05:27;;;;;;;5.75;2.13;;;30.60;77.20;;;;;;4956145;28;20667;-93
2023/04/29 01:08:14;;;;;;;7.72;2.28;;;30.70;75.10;;;;;;4954983;28;20220;-92
2023/04/29 01:10:55;;;;;;;5.90;2.05;;;30.70;74.90;;;;;;4956096;29;20216;-93
2023/04/29 01:13:32;;;;;;;9.80;2.75;;;30.80;76.70;;;;;;4956177;29;20298;-93
2023/04/29 01:16:05;;;;;;;6.53;1.83;;;30.80;76.10;;;;;;4957370;28;20215;-93
2023/04/29 01:18:42;;;;;;;6.50;1.92;;;31.00;74.30;;;;;;4970026;28;20243;-93
2023/04/29 01:21:13;;;;;;;5.70;1.90;;;31.10;73.40;;;;;;4977444;28;20206;-93
2023/04/29 01:23:46;;;;;;;8.70;2.30;;;31.00;74.30;;;;;;4975381;28;20280;-93
2023/04/29 01:26:17;;;;;;;5.65;2.40;;;30.90;74.70;;;;;;4975218;28;20214;-94
2023/04/29 01:28:55;;;;;;;6.40;2.00;;;31.00;73.20;;;;;;4975057;28;20577;-93
2023/04/29 01:31:31;;;;;;;4.53;2.28;;;31.10;73.00;;;;;;4974721;28;20270;-91
2023/04/29 01:34:09;;;;;;;5.82;2.08;;;30.80;72.90;;;;;;4974705;28;20720;-91
2023/04/29 01:36:48;;;;;;;8.93;2.60;;;30.90;74.40;;;;;;4974870;28;20219;-91
2023/04/29 01:39:34;;;;;;;6.63;2.20;;;30.80;75.20;;;;;;4973896;28;20218;-92
2023/04/29 01:42:12;;;;;;;7.38;2.72;;;31.00;72.80;;;;;;4974813;28;20270;-91
2023/04/29 01:44:44;;;;;;;8.60;2.22;;;30.80;73.30;;;;;;4974278;28;20229;-91
2023/04/29 01:47:16;;;;;;;8.45;2.15;;;30.50;72.80;;;;;;4975031;28;20209;-90
2023/04/29 01:49:47;;;;;;;11.13;2.40;;;30.20;73.60;;;;;;4973922;28;20210;-90
2023/04/29 01:52:18;;;;;;;6.00;2.00;;;29.80;76.10;;;;;;4974836;28;20251;-91
2023/04/29 01:54:51;;;;;;;8.27;2.20;;;29.60;76.10;;;;;;4974425;28;20293;-91
2023/04/29 01:57:21;;;;;;;8.10;1.92;;;29.20;77.20;;;;;;4974563;28;20210;-90
2023/04/29 01:59:52;;;;;;;6.47;2.20;;;28.80;77.70;;;;;;4974014;28;20211;-90
2023/04/29 02:02:24;;;;;;;5.97;2.15;;;28.30;77.10;;;;;;4974332;28;20218;-90
2023/04/29 02:04:55;;;;;;;6.37;2.60;;;28.00;78.70;;;;;;4974304;28;20273;-92
2023/04/29 02:07:26;;;;;;;6.93;2.37;;;27.60;79.20;;;;;;4974969;28;20211;-93
2023/04/29 02:09:59;;;;;;;4.10;2.07;;;27.30;79.60;;;;;;4974925;28;20254;-90
2023/04/29 02:12:31;;;;;;;6.63;2.40;;;27.00;82.20;;;;;;4978946;28;20611;-90
2023/04/29 02:15:02;;;;;;;7.83;2.30;;;26.60;83.50;;;;;;4977907;28;20239;-92
2023/04/29 02:17:35;;;;;;;5.20;2.43;;;26.20;86.40;;;;;;4995850;28;20223;-92
2023/04/29 02:20:06;;;;;;;9.43;2.13;;;26.00;86.40;;;;;;4993543;28;20230;-92
2023/04/29 02:22:38;;;;;;;11.90;2.43;;;25.80;87.60;;;;;;4984733;28;20203;-92
2023/04/29 02:25:12;;;;;;;7.80;2.23;;;25.60;87.20;;;;;;4978149;28;20203;-92
2023/04/29 02:27:43;;;;;;;8.13;2.10;;;25.40;86.50;;;;;;4975636;28;20215;-92
2023/04/29 02:30:14;;;;;;;5.00;1.87;;;25.30;88.50;;;;;;4977396;28;20634;-92
2023/04/29 02:32:45;;;;;;;8.77;2.47;;;25.10;89.80;;;;;;4978953;28;20289;-92
2023/04/29 02:35:17;;;;;;;5.00;2.83;;;24.90;91.10;;;;;;4976935;28;20322;-92
2023/04/29 02:37:49;;;;;;;6.63;2.30;;;24.70;91.10;;;;;;4977075;28;20212;-91
2023/04/29 02:40:24;;;;;;;6.67;2.50;;;24.50;91.50;;;;;;4977479;28;20211;-90
2023/04/29 02:42:55;;;;;;;5.13;2.30;;;24.30;92.10;;;;;;4977156;28;20210;-90
2023/04/29 02:45:26;;;;;;;6.53;2.30;;;24.30;91.60;;;;;;4977452;28;20262;-90
2023/04/29 02:47:57;;;;;;;8.00;2.60;;;24.10;92.70;;;;;;4976600;28;20238;-91
2023/04/29 02:50:28;;;;;;;7.63;2.63;;;23.80;93.60;;;;;;4977149;28;20297;-90
2023/04/29 02:53:00;;;;;;;4.70;2.37;;;23.70;93.80;;;;;;4975240;28;20262;-90
2023/04/29 02:55:33;;;;;;;7.87;2.40;;;23.50;93.90;;;;;;4977260;28;20245;-90
2023/04/29 02:58:04;;;;;;;5.33;2.70;;;23.30;94.30;;;;;;4976237;28;20203;-91
2023/04/29 03:00:35;;;;;;;5.37;2.33;;;23.20;95.30;;;;;;4977160;28;20209;-91
2023/04/29 03:03:07;;;;;;;6.73;2.30;;;23.00;95.30;;;;;;4977259;28;20214;-91
2023/04/29 03:05:38;;;;;;;6.50;2.60;;;22.80;95.10;;;;;;4977187;28;20217;-92
2023/04/29 03:08:10;;;;;;;9.97;2.93;;;22.70;96.30;;;;;;4976765;28;20242;-92
2023/04/29 03:10:43;;;;;;;5.70;2.63;;;22.60;96.20;;;;;;4977270;28;20283;-92
2023/04/29 03:13:14;;;;;;;4.90;2.67;;;22.40;96.00;;;;;;4977848;28;20273;-92
2023/04/29 03:15:45;;;;;;;7.33;2.87;;;22.30;96.60;;;;;;4977690;28;20241;-91
2023/04/29 03:18:16;;;;;;;6.93;2.73;;;22.10;96.50;;;;;;4976542;28;20219;-92
2023/04/29 03:20:48;;;;;;;6.47;2.73;;;22.00;97.00;;;;;;4977820;28;20207;-91
2023/04/29 03:23:19;;;;;;;6.40;2.60;;;21.80;97.70;;;;;;4977482;28;20283;-91
2023/04/29 03:25:54;;;;;;;7.27;2.30;;;21.70;98.80;;;;;;4976910;28;20203;-91
2023/04/29 03:28:25;;;;;;;9.60;2.53;;;21.50;99.70;;;;;;4976400;28;20221;-92
2023/04/29 03:30:57;;;;;;;8.93;2.70;;;21.30;99.90;;;;;;4979101;28;20221;-92
2023/04/29 03:33:29;;;;;;;4.70;2.67;;;21.10;99.90;;;;;;4977166;28;20203;-93
2023/04/29 03:36:02;;;;;;;6.07;2.63;;;20.90;99.90;;;;;;4977546;28;20231;-93
2023/04/29 03:38:32;;;;;;;5.33;2.37;;;20.80;99.90;;;;;;4975681;28;20210;-91
2023/04/29 03:41:06;;;;;;;6.70;2.67;;;20.70;99.90;;;;;;4974917;28;20214;-91
2023/04/29 03:43:37;;;;;;;6.63;2.60;;;20.60;99.90;;;;;;4976719;28;20207;-91
2023/04/29 03:46:09;;;;;;;7.03;2.57;;;20.40;99.90;;;;;;4976640;28;20215;-90
2023/04/29 03:48:40;;;;;;;4.50;2.33;;;20.20;99.90;;;;;;4956758;28;20207;-91
2023/04/29 03:51:12;;;;;;;7.17;2.40;;;20.00;99.90;;;;;;4956913;28;20219;-91
2023/04/29 03:53:43;;;;;;;7.03;2.37;;;19.90;99.90;;;;;;4975601;28;20227;-91
2023/04/29 03:56:16;;;;;;;5.67;2.17;;;19.80;99.90;;;;;;4976814;28;20238;-92
2023/04/29 03:58:47;;;;;;;6.40;2.30;;;19.70;99.90;;;;;;4975935;28;20304;-91
2023/04/29 04:01:19;;;;;;;4.80;2.10;;;19.60;99.90;;;;;;4976339;28;20670;-90
2023/04/29 04:03:51;;;;;;;6.57;2.37;;;19.50;99.90;;;;;;4976116;28;20199;-92
2023/04/29 04:06:22;;;;;;;8.37;2.20;;;19.40;99.90;;;;;;4976344;28;20586;-91
2023/04/29 04:08:53;;;;;;;4.60;2.20;;;19.30;99.90;;;;;;4986323;28;20270;-90
2023/04/29 04:11:26;;;;;;;2.73;1.87;;;19.20;99.90;;;;;;4989479;28;20199;-92
2023/04/29 04:13:58;;;;;;;6.90;2.57;;;19.10;99.90;;;;;;4984511;28;20284;-92
2023/04/29 04:16:29;;;;;;;4.37;2.30;;;19.00;99.90;;;;;;4981172;28;20315;-92
2023/04/29 04:19:00;;;;;;;7.20;2.00;;;18.90;99.90;;;;;;4979804;28;20669;-90
2023/04/29 04:21:32;;;;;;;3.87;2.20;;;18.80;99.90;;;;;;4979206;28;20210;-91
2023/04/29 04:24:03;;;;;;;3.27;2.23;;;18.70;99.90;;;;;;4978369;28;20215;-92
2023/04/29 04:26:36;;;;;;;6.00;1.73;;;18.70;99.90;;;;;;4960715;28;20266;-92
2023/04/29 04:29:08;;;;;;;5.67;1.93;;;18.50;99.90;;;;;;4977919;28;20222;-91
2023/04/29 04:31:39;;;;;;;5.00;2.10;;;18.40;99.90;;;;;;4998153;28;20253;-90
2023/04/29 04:34:14;;;;;;;4.63;2.20;;;18.40;99.90;;;;;;4998442;28;20277;-92
2023/04/29 04:36:45;;;;;;;4.53;2.13;;;18.30;99.90;;;;;;4989966;28;20629;-92
2023/04/29 04:39:18;;;;;;;4.33;2.30;;;18.20;99.90;;;;;;4977986;28;20203;-91
2023/04/29 04:41:51;;;;;;;4.40;2.37;;;18.10;99.90;;;;;;4977748;28;20222;-92
2023/04/29 04:44:22;;;;;;;3.77;2.10;;;18.00;99.90;;;;;;4977326;28;20294;-92
2023/04/29 04:46:54;;;;;;;4.47;2.20;;;17.90;99.90;;;;;;4976455;28;20266;-91
2023/04/29 04:49:26;;;;;;;7.20;2.33;;;17.80;99.90;;;;;;4975587;28;20225;-90
2023/04/29 04:51:57;;;;;;;4.50;2.63;;;17.70;99.90;;;;;;4975824;28;20246;-90
2023/04/29 04:54:28;;;;;;;3.40;2.10;;;17.70;99.90;;;;;;4976251;28;20577;-91
2023/04/29 04:57:04;;;;;;;6.17;3.50;;;17.70;99.90;;;;;;4975785;28;20235;-90
2023/04/29 04:59:35;;;;;;;6.60;3.00;;;17.60;99.90;;;;;;4974641;28;20207;-91
2023/04/29 05:02:07;;;;;;;6.50;2.50;;;17.50;99.90;;;;;;4975243;28;20225;-90
2023/04/29 05:04:38;;;;;;;6.27;2.10;;;17.40;99.90;;;;;;4975426;28;20215;-91
2023/04/29 05:07:09;;;;;;;4.37;2.27;;;17.30;99.90;;;;;;4975542;28;20210;-90
2023/04/29 05:09:40;;;;;;;3.83;2.20;;;17.20;99.90;;;;;;4955413;28;20729;-92
2023/04/29 05:12:14;;;;;;;4.03;2.10;;;17.20;99.90;;;;;;4955761;29;20671;-91
2023/04/29 05:14:45;;;;;;;4.83;2.20;;;17.20;99.90;;;;;;4956663;28;20254;-91
2023/04/29 05:17:17;;;;;;;8.00;2.40;;;17.10;99.90;;;;;;4958459;28;20235;-92
2023/04/29 05:19:49;;;;;;;5.43;1.80;;;17.00;99.90;;;;;;4954878;29;20258;-92
2023/04/29 05:22:20;;;;;;;4.87;2.63;;;17.00;99.90;;;;;;4956527;29;20207;-91
2023/04/29 05:24:53;;;;;;;4.50;2.23;;;17.00;99.90;;;;;;4961533;28;20212;-92
2023/04/29 05:27:25;;;;;;;4.20;2.17;;;16.90;99.90;;;;;;4958953;29;20284;-91
2023/04/29 05:29:57;;;;;;;5.80;2.50;;;16.90;99.90;;;;;;4956371;28;20254;-90
2023/04/29 05:32:28;;;;;;;3.87;2.40;;;16.90;99.90;;;;;;4956239;28;20208;-90
2023/04/29 05:34:59;;;;;;;5.77;2.53;;;16.80;99.90;;;;;;4956054;28;20214;-92
2023/04/29 05:37:33;;;;;;;5.53;2.20;;;16.70;99.90;;;;;;4955422;28;20322;-91
2023/04/29 05:40:05;;;;;;;5.70;2.37;;;16.70;99.90;;;;;;4955909;29;20557;-92
2023/04/29 05:42:39;;;;;;;5.07;2.43;;;16.60;99.90;;;;;;4956324;28;20211;-90
2023/04/29 05:45:11;;;;;;;7.40;2.63;;;16.60;99.90;;;;;;4956121;28;20211;-91
2023/04/29 05:47:43;;;;;;;5.13;2.60;;;16.60;99.90;;;;;;4955359;28;20211;-91
2023/04/29 05:50:16;;;;;;;9.57;2.67;;;16.50;99.90;;;;;;4955179;29;20214;-91
2023/04/29 05:52:47;;;;;;;10.93;3.17;;;16.50;99.90;;;;;;4956156;29;20231;-91
2023/04/29 05:55:18;;;;;;;8.83;2.83;;;16.50;99.90;;;;;;4955683;28;20214;-91
2023/04/29 05:57:50;;;;;;;3.77;2.60;;;16.40;99.90;;;;;;4954852;28;20204;-90
2023/04/29 06:00:22;;;;;;;8.67;3.10;;;16.40;99.90;;;;;;4956065;28;20227;-90
2023/04/29 06:02:55;;;;;;;5.43;2.87;;;16.30;99.90;;;;;;4955973;28;20222;-91
2023/04/29 06:05:28;;;;;;;6.87;2.80;;;16.20;99.90;;;;;;4958980;28;20321;-89
2023/04/29 06:08:00;;;;;;;5.27;3.33;;;16.20;99.90;;;;;;4958646;28;20215;-91
2023/04/29 06:10:32;;;;;;;6.67;3.20;;;16.20;99.90;;;;;;4958243;29;20258;-91
2023/04/29 06:13:05;;;;;;;7.10;3.20;;;16.20;99.90;;;;;;4959481;29;20218;-90
2023/04/29 06:15:36;;;;;;;5.83;2.83;;;16.10;99.90;;;;;;4958865;28;20219;-90
2023/04/29 06:18:07;;;;;;;5.67;2.93;;;16.00;99.90;;;;;;4958838;28;20760;-90
2023/04/29 06:20:39;;;;;;;5.07;2.67;;;16.00;99.90;;;;;;4958972;29;20215;-91
2023/04/29 06:23:11;;;;;;;6.73;2.83;;;16.00;99.90;;;;;;4958553;29;20219;-91
2023/04/29 06:25:42;;;;;;;5.97;2.60;;;16.00;99.90;;;;;;4958244;29;20204;-91
2023/04/29 06:28:15;;;;;;;5.70;2.83;;;16.00;99.90;;;;;;4958972;29;20678;-91
2023/04/29 06:30:46;;;;;;;7.23;2.80;;;16.00;99.90;;;;;;4958627;28;20216;-90
2023/04/29 06:33:18;;;;;;;6.23;3.17;;;15.90;99.90;;;;;;4959425;28;20231;-91
2023/04/29 06:35:49;;;;;;;6.33;2.80;;;15.90;99.90;;;;;;4959213;28;20207;-91
2023/04/29 06:38:21;;;;;;;8.33;3.10;;;15.90;99.90;;;;;;4959355;28;20235;-91
2023/04/29 06:40:52;;;;;;;8.93;3.90;;;15.90;99.90;;;;;;4958345;28;20203;-91
2023/04/29 06:43:26;;;;;;;7.30;3.17;;;15.80;99.90;;;;;;4975853;29;20192;-92
2023/04/29 06:45:57;;;;;;;8.93;4.00;;;15.80;99.90;;;;;;4980124;28;20207;-91
2023/04/29 06:48:28;;;;;;;6.93;4.13;;;15.80;99.90;;;;;;4984906;28;20215;-91
2023/04/29 06:51:00;;;;;;;11.50;4.47;;;15.70;99.90;;;;;;4978725;28;20654;-90
2023/04/29 06:53:31;;;;;;;6.80;4.33;;;15.70;99.90;;;;;;4978749;28;20670;-91
2023/04/29 06:56:03;;;;;;;6.37;4.23;;;15.70;99.90;;;;;;4978589;28;20199;-90
2023/04/29 06:58:35;;;;;;;12.20;5.10;;;15.60;99.90;;;;;;4976843;28;20207;-90
2023/04/29 07:01:08;;;;;;;13.10;4.73;;;15.60;99.90;;;;;;4977454;28;20562;-90
2023/04/29 07:03:39;;;;;;;9.20;4.73;;;15.60;99.90;;;;;;4976462;28;20241;-90
2023/04/29 07:06:10;;;;;;;7.77;4.03;;;15.60;99.90;;;;;;4977463;28;20299;-90
2023/04/29 07:08:41;;;;;;;8.37;4.37;;;15.50;99.90;;;;;;4977017;28;20674;-90
2023/04/29 07:11:12;;;;;;;7.90;3.83;;;15.50;99.90;;;;;;4976975;28;20563;-91
2023/04/29 07:13:45;;;;;;;10.10;4.57;;;15.50;99.90;;;;;;4977567;28;20210;-90
2023/04/29 07:16:19;;;;;;;5.83;5.10;;;15.50;99.90;;;;;;4976990;28;20211;-91
2023/04/29 07:18:50;;;;;;;5.43;4.90;;;15.60;99.90;;;;;;4976253;28;20226;-90
2023/04/29 07:21:21;;;;;;;7.90;5.83;;;15.60;99.90;;;;;;4977158;28;20206;-91
2023/04/29 07:23:52;;;;;;;6.53;3.30;;;15.50;99.90;;;;;;4977728;28;20269;-90
2023/04/29 07:26:23;;;;;;;6.50;2.90;;;15.40;99.90;;;;;;4977382;28;20203;-91
2023/04/29 07:28:56;;;;;;;4.53;2.87;;;15.50;99.90;;;;;;4960787;28;20208;-91
2023/04/29 07:31:28;;;;;;;7.13;2.90;;;15.60;99.90;;;;;;4957971;29;20215;-91
2023/04/29 07:34:00;;;;;;;8.17;3.20;;;15.50;99.90;;;;;;4958045;29;20199;-90
2023/04/29 07:36:31;;;;;;;6.00;3.10;;;15.50;99.90;;;;;;4957678;28;20212;-91
2023/04/29 07:39:02;;;;;;;6.07;3.00;;;15.50;99.90;;;;;;4956532;28;20208;-90
2023/04/29 07:41:34;;;;;;;7.87;3.53;;;15.40;99.90;;;;;;4957459;28;20662;-91
2023/04/29 07:44:07;;;;;;;5.03;3.27;;;15.40;99.90;;;;;;4957182;29;20239;-92
2023/04/29 07:46:38;;;;;;;9.40;3.40;;;15.40;99.90;;;;;;4956766;28;20218;-91
2023/04/29 07:49:09;;;;;;;6.50;3.80;;;15.30;99.90;;;;;;4956511;29;20267;-91
2023/04/29 07:51:43;;;;;;;5.90;3.60;;;15.30;99.90;;;;;;4957423;28;20212;-91
2023/04/29 07:54:13;;;;;;;6.80;3.60;;;15.10;99.90;;;;;;4957272;28;20203;-91
2023/04/29 07:56:45;;;;;;;5.17;3.10;;;15.10;99.90;;;;;;4957173;28;20311;-91
2023/04/29 07:59:18;;;;;;;5.27;3.50;;;15.00;99.90;;;;;;4956532;29;20432;-91
2023/04/29 08:01:50;;;;;;;7.00;3.63;;;14.90;99.90;;;;;;4957415;28;20227;-90
2023/04/29 08:04:20;;;;;;;4.97;3.50;;;14.80;99.90;;;;;;4956715;28;20262;-90
2023/04/29 08:06:52;;;;;;;5.87;3.33;;;14.70;99.90;;;;;;4959199;28;20337;-90
2023/04/29 08:09:22;;;;;;;7.77;3.87;;;14.70;99.90;;;;;;4957392;28;20262;-90
2023/04/29 08:11:53;;;;;;;6.50;3.47;;;14.60;99.90;;;;;;4956708;28;20259;-89
2023/04/29 08:14:26;;;;;;;7.00;3.20;;;14.60;99.90;;;;;;4958614;28;20547;-90
2023/04/29 08:16:57;;;;;;;6.30;2.97;;;14.50;99.90;;;;;;4957214;28;20231;-90
2023/04/29 08:19:29;;;;;;;6.37;3.33;;;14.50;99.90;;;;;;4956604;28;20214;-90
2023/04/29 08:22:00;;;;;;;5.50;3.43;;;14.40;99.90;;;;;;4956898;29;20207;-89
2023/04/29 08:24:32;;;;;;;6.37;3.37;;;14.40;99.90;;;;;;4957441;29;20231;-90
2023/04/29 08:27:03;;;;;;;6.30;3.60;;;14.40;99.90;;;;;;4957119;28;20300;-90
2023/04/29 08:29:37;;;;;;;8.57;3.90;;;14.30;99.90;;;;;;4955931;29;20631;-90
2023/04/29 08:32:08;;;;;;;7.33;3.87;;;14.30;99.90;;;;;;4957219;28;20262;-91
2023/04/29 08:34:41;;;;;;;5.27;3.97;;;14.30;99.90;;;;;;4957210;28;20207;-91
2023/04/29 08:37:12;;;;;;;7.23;4.00;;;14.20;99.90;;;;;;4957255;29;20232;-91
2023/04/29 08:39:45;;;;;;;8.90;4.23;;;14.10;99.90;;;;;;4957267;28;20274;-90
2023/04/29 08:42:19;;;;;;;6.57;4.10;;;14.10;99.90;;;;;;4956809;29;20219;-91
2023/04/29 08:44:54;;;;;;;6.63;3.93;;;14.10;99.90;;;;;;4956718;28;20667;-90
2023/04/29 08:47:26;;;;;;;6.93;4.23;;;14.00;99.90;;;;;;4960275;28;20276;-91
2023/04/29 08:49:57;;;;;;;7.80;4.70;;;14.00;99.90;;;;;;4976991;28;20214;-90
2023/04/29 08:52:29;;;;;;;8.07;5.00;;;13.90;99.90;;;;;;4976967;28;20242;-91
2023/04/29 08:55:01;;;;;;;8.83;5.40;;;13.80;99.90;;;;;;4993910;28;20203;-92
2023/04/29 08:57:38;;;;;;;10.87;5.47;;;13.80;99.90;;;;;;4990713;28;20266;-93
2023/04/29 09:00:12;;;;;;;8.57;5.33;;;13.80;99.90;;;;;;4977186;28;20305;-91
2023/04/29 09:02:50;;;;;;;7.77;5.80;;;13.70;99.90;;;;;;4975870;28;20260;-91
2023/04/29 09:05:22;;;;;;;8.20;5.63;;;13.70;99.90;;;;;;4976452;28;20335;-91
2023/04/29 09:07:54;;;;;;;11.40;6.67;;;13.70;99.90;;;;;;4975437;28;20854;-90
2023/04/29 09:10:26;;;;;;;8.13;6.13;;;13.60;99.90;;;;;;4975820;28;20214;-90
2023/04/29 09:12:58;;;;;;;8.87;6.00;;;13.60;99.90;;;;;;4975671;28;20219;-90
2023/04/29 09:15:39;;;;;;;7.47;5.70;;;13.50;99.90;;;;;;4975729;28;20261;-90
2023/04/29 09:18:10;;;;;;;5.53;4.90;;;13.50;99.90;;;;;;4974848;28;20700;-90
2023/04/29 09:20:41;;;;;;;6.47;4.27;;;13.50;99.90;;;;;;4976198;28;20230;-90
2023/04/29 09:23:12;;;;;;;6.23;4.00;;;13.50;99.90;;;;;;4976185;28;20215;-90
2023/04/29 09:25:55;;;;;;;8.23;3.60;;;13.50;99.90;;;;;;4975800;28;20213;-91
2023/04/29 09:28:26;;;;;;;6.87;3.90;;;13.50;99.90;;;;;;4974634;28;20203;-90
2023/04/29 09:30:59;;;;;;;7.57;3.27;;;13.50;99.90;;;;;;4974600;28;20560;-90
2023/04/29 09:33:31;;;;;;;5.93;3.57;;;13.50;99.90;;;;;;4975418;28;20254;-90
2023/04/29 09:36:02;;;;;;;5.27;3.30;;;13.40;99.90;;;;;;4975297;28;20206;-91
2023/04/29 09:38:35;;;;;;;7.00;3.47;;;13.40;99.90;;;;;;4975198;28;20235;-90
2023/04/29 09:41:14;;;;;;;6.40;3.30;;;13.50;99.90;;;;;;4979360;28;20215;-91
2023/04/29 09:43:46;;;;;;;7.17;3.77;;;13.50;99.90;;;;;;4979314;28;20673;-91
2023/04/29 09:46:19;;;;;;;6.83;3.50;;;13.40;99.90;;;;;;4978647;28;20211;-91
2023/04/29 09:48:51;;;;;;;5.53;3.23;;;13.40;99.90;;;;;;4978319;28;20209;-91
2023/04/29 09:51:22;;;;;;;7.13;3.37;;;13.40;99.90;;;;;;4979189;28;20290;-89
2023/04/29 09:53:53;;;;;;;6.17;3.70;;;13.40;99.90;;;;;;4979066;28;20215;-90
2023/04/29 09:56:27;;;;;;;7.27;3.73;;;13.30;99.90;;;;;;4979054;28;20218;-91
2023/04/29 09:59:09;;;;;;;8.63;3.90;;;13.30;99.90;;;;;;4978052;28;20602;-91
2023/04/29 10:01:42;;;;;;;7.70;4.57;;;13.30;99.90;;;;;;4978556;28;20203;-92
2023/04/29 10:04:16;;;;;;;6.20;3.87;;;13.20;99.90;;;;;;4979014;28;20665;-90
2023/04/29 10:06:50;;;;;;;7.93;3.27;;;13.20;99.90;;;;;;4978845;28;20242;-90
2023/04/29 10:09:23;;;;;;;8.00;3.97;;;13.20;99.90;;;;;;4977325;28;20576;-90
2023/04/29 10:11:55;;;;;;;8.30;3.27;;;13.20;99.90;;;;;;4978467;28;20258;-90
2023/04/29 10:14:28;;;;;;;7.50;3.37;;;13.10;99.90;;;;;;4978479;28;20211;-91
2023/04/29 10:17:09;;;;;;;10.07;3.40;;;13.10;99.90;;;;;;4978126;28;20206;-91
2023/04/29 10:19:44;;;;;;;5.73;3.23;;;13.20;99.90;;;;;;4957902;29;21052;-90
2023/04/29 10:22:23;;;;;;;6.17;2.77;;;13.20;99.90;;;;;;4958899;28;20211;-89
2023/04/29 10:24:56;;;;;;;6.30;3.27;;;13.20;99.90;;;;;;4958817;28;20207;-90
2023/04/29 10:27:29;;;;;;;5.63;3.57;;;13.20;99.90;;;;;;4958416;28;20234;-96
2023/04/29 10:30:01;;;;;;;4.87;3.10;;;13.30;99.90;;;;;;4958587;28;20249;-90
2023/04/29 10:32:38;;;;;;;7.13;3.50;;;13.30;99.90;;;;;;4959190;28;20210;-90
2023/04/29 10:35:22;;;;;;;4.60;3.23;;;13.40;99.90;;;;;;4958919;28;20566;-91
2023/04/29 10:37:54;;;;;;;5.47;3.20;;;13.70;99.90;;;;;;4957879;28;20215;-90
2023/04/29 10:40:31;;;;;;;5.27;2.83;;;13.70;99.90;;;;;;4958786;28;20204;-90
2023/04/29 10:43:03;;;;;;;5.93;3.30;;;13.70;99.90;;;;;;4958760;28;20254;-91
2023/04/29 10:45:35;;;;;;;4.77;2.83;;;13.70;99.90;;;;;;4958676;28;20263;-90
2023/04/29 10:48:20;;;;;;;7.47;2.77;;;13.80;99.90;;;;;;4957623;29;20217;-91
2023/04/29 10:51:05;;;;;;;5.47;3.00;;;14.00;99.90;;;;;;4958285;28;20207;-91
2023/04/29 10:53:37;;;;;;;8.60;2.70;;;14.10;99.90;;;;;;4958721;28;20215;-90
2023/04/29 10:56:11;;;;;;;5.57;2.77;;;14.70;99.90;;;;;;4958798;28;20208;-90
2023/04/29 10:58:44;;;;;;;7.03;3.20;;;15.10;99.90;;;;;;4957988;28;20693;-92
2023/04/29 11:01:17;;;;;;;6.30;2.87;;;15.10;99.90;;;;;;4958906;28;20211;-90
2023/04/29 11:03:57;;;;;;;4.43;2.50;;;15.10;99.90;;;;;;4959632;28;20215;-91
2023/04/29 11:06:41;;;;;;;3.97;2.63;;;15.00;99.90;;;;;;4980187;28;20227;-92
2023/04/29 11:09:14;;;;;;;4.57;2.77;;;15.10;99.90;;;;;;4979081;28;20224;-90
2023/04/29 11:11:51;;;;;;;6.87;3.13;;;15.10;99.90;;;;;;4965706;28;20212;-91
2023/04/29 11:14:26;;;;;;;8.00;2.80;;;15.20;99.90;;;;;;4959352;28;20647;-91
2023/04/29 11:16:59;;;;;;;7.00;2.50;;;15.30;99.90;;;;;;4958787;28;20211;-91
2023/04/29 11:19:36;;;;;;;3.87;2.23;;;15.30;99.90;;;;;;4976414;28;20245;-90
2023/04/29 11:22:16;;;;;;;6.87;2.60;;;15.30;99.90;;;;;;4976601;28;20203;-90
2023/04/29 11:24:52;;;;;;;4.63;2.40;;;15.30;99.90;;;;;;4977077;28;20253;-90
2023/04/29 11:27:35;;;;;;;4.89;2.57;;;15.50;99.90;;;;;;4957791;28;10001469;-90
2023/04/29 11:30:08;;;;;;;5.37;2.47;;;15.50;99.90;;;;;;4975533;28;20483;-89
2023/04/29 11:32:41;;;;;;;7.20;2.10;;;15.60;99.90;;;;;;4975491;28;20211;-90
2023/04/29 11:35:15;;;;;;;7.07;2.33;;;15.40;99.90;;;;;;4976833;28;20298;-90
2023/04/29 11:37:48;;;;;;;4.23;2.27;;;15.40;99.90;;;;;;4975932;28;20669;-89
2023/04/29 11:40:20;;;;;;;5.07;2.43;;;15.60;99.90;;;;;;4976596;28;20709;-90
2023/04/29 11:42:51;;;;;;;5.03;2.30;;;15.60;99.90;;;;;;4976536;28;20210;-90
2023/04/29 11:45:23;;;;;;;4.50;1.97;;;15.60;99.90;;;;;;4976499;28;20215;-90
2023/04/29 11:47:55;;;;;;;8.03;2.17;;;15.60;99.90;;;;;;4968701;28;20650;-91
2023/04/29 11:50:27;;;;;;;5.93;2.50;;;15.60;99.90;;;;;;4957339;29;20266;-89
2023/04/29 11:53:00;;;;;;;6.13;2.57;;;15.50;99.90;;;;;;4957432;29;20223;-91
2023/04/29 11:55:31;;;;;;;2.70;1.73;;;15.60;99.90;;;;;;4957006;28;20212;-91
2023/04/29 11:58:02;;;;;;;4.03;2.00;;;15.50;99.90;;;;;;4970356;28;20212;-90
2023/04/29 12:00:33;;;;;;;4.03;2.07;;;15.40;99.90;;;;;;4957028;29;20267;-90
2023/04/29 12:03:14;;;;;;;8.13;2.30;;;15.40;99.90;;;;;;4956193;28;20219;-91
2023/04/29 12:05:53;;;;;;;3.77;2.23;;;15.40;99.90;;;;;;4956837;28;20212;-91
2023/04/29 12:08:25;;;;;;;5.23;1.97;;;15.30;99.90;;;;;;4956259;29;20292;-91
2023/04/29 12:10:57;;;;;;;5.27;2.17;;;15.30;99.90;;;;;;4956855;28;20259;-90
2023/04/29 12:13:31;;;;;;;4.87;2.03;;;15.30;99.90;;;;;;4957001;29;20207;-91
2023/04/29 12:16:03;;;;;;;3.63;1.70;;;15.30;99.90;;;;;;4956729;28;20218;-91
2023/04/29 12:18:34;;;;;;;4.67;2.00;;;15.20;99.90;;;;;;4968081;28;20215;-91
2023/04/29 12:21:07;;;;;;;7.37;2.10;;;15.20;99.90;;;;;;4976604;28;20238;-90
2023/04/29 12:23:39;;;;;;;4.20;2.17;;;15.20;99.90;;;;;;4976146;28;20207;-90
2023/04/29 12:26:10;;;;;;;4.90;1.87;;;15.20;99.90;;;;;;4976089;28;20210;-89
2023/04/29 12:28:43;;;;;;;5.30;2.10;;;15.20;99.90;;;;;;4974894;28;20221;-90
2023/04/29 12:31:16;;;;;;;3.50;2.00;;;15.20;99.90;;;;;;4976734;28;20215;-90
2023/04/29 12:33:48;;;;;;;2.90;1.80;;;15.10;99.90;;;;;;4975567;28;20215;-91
2023/04/29 12:36:21;;;;;;;2.60;1.80;;;15.10;99.90;;;;;;4975675;28;20215;-90
2023/04/29 12:38:53;;;;;;;4.17;2.20;;;15.00;99.90;;;;;;4975033;28;20219;-90
2023/04/29 12:41:38;;;;;;;6.13;1.93;;;15.00;99.90;;;;;;4975449;28;20215;-90
2023/04/29 12:44:11;;;;;;;4.17;1.90;;;15.00;99.90;;;;;;4975674;28;20203;-90
2023/04/29 12:46:42;;;;;;;5.23;2.47;;;14.90;99.90;;;;;;4975470;28;20211;-89
2023/04/29 12:49:14;;;;;;;8.80;2.10;;;14.80;99.90;;;;;;4974928;28;20203;-90
2023/04/29 12:51:48;;;;;;;4.70;2.20;;;14.70;99.90;;;;;;4988522;28;20241;-90
2023/04/29 12:54:19;;;;;;;8.77;2.50;;;14.70;99.90;;;;;;4975904;28;20254;-90
2023/04/29 12:56:50;;;;;;;5.30;2.43;;;14.70;99.90;;;;;;4975530;28;20207;-92
2023/04/29 12:59:21;;;;;;;3.83;1.90;;;14.60;99.90;;;;;;4973548;28;20211;-91
2023/04/29 13:01:52;;;;;;;3.67;1.90;;;14.50;99.90;;;;;;4975451;28;20574;-91
2023/04/29 13:04:23;;;;;;;5.67;2.27;;;14.60;99.90;;;;;;4974890;28;20215;-91
2023/04/29 13:06:59;;;;;;;5.97;2.20;;;14.60;99.90;;;;;;4975816;28;20218;-91
2023/04/29 13:09:31;;;;;;;5.30;2.53;;;14.60;99.90;;;;;;4976931;28;20226;-91
2023/04/29 13:12:02;;;;;;;3.93;2.00;;;14.60;99.90;;;;;;4976935;28;20245;-91
2023/04/29 13:14:33;;;;;;;4.80;2.27;;;14.60;99.90;;;;;;4985358;28;20211;-92